• Join FlightAware (Why Join?)
  • Login
  • US Flag 
06:49PM EDT


 

Airport Tracker/Info


-or-


 

Live Flight TrackerFlight Track Log ✈ RPA3159 ✈ 09-Jul-2013 ✈ KBTV - KPHL

Flight Track Log - Related Links

Times and Time Zones

All times are in EDT time to prevent confusion due to time zone crossing. See the RPA3159 flight status page for this flight to view local times or setup timezone preferences in your user account.

Time Position Orientation Groundspeed Altitude Reporting Facility
EDT Latitude Longitude Course Direction KTS MPH feet Rate Location/Type
11:56AM 44.2839 -73.1942 197° South 332 382 8,000  Level Boston Center
11:57AM 44.2044 -73.2278 197° South 313 360 10,400 2,400 Climbing Boston Center
11:58AM 43.8004 -73.3937 195° South  Level FlightAware Approximate
11:58AM 44.1333 -73.2847 210° Southwest 300 345 12,800  Level Boston Center
11:59AM 43.6893 -73.4353 195° South  Level FlightAware Approximate
11:59AM 44.0597 -73.3500 213° Southwest 316 364 15,400  Level Boston Center
12:00PM 43.5794 -73.4822 198° South  Level FlightAware Approximate
12:00PM 43.9842 -73.4183 213° Southwest 324 373 17,800  Level Boston Center
12:01PM 43.4779 -73.5283 198° South  Level FlightAware Approximate
12:01PM 43.9022 -73.4889 212° Southwest 335 386 19,500  Level Boston Center
12:02PM 43.3729 -73.5545 197° South  Level FlightAware Approximate
12:02PM 43.8203 -73.5622 213° Southwest 353 406 26,000  Level Boston Center
12:03PM 43.7217 -73.6467 212° Southwest 374 430 23,700 -420 Descending Boston Center
12:04PM 43.6394 -73.7167 212° Southwest 385 443 25,200 1,140 Climbing Boston Center
12:05PM 43.5489 -73.7950 212° Southwest 390 449 26,000 360 Climbing Boston Center
12:06PM 43.4583 -73.8758 213° Southwest 390 449 26,000  Level Boston Center
12:07PM 43.3572 -73.9622 212° Southwest 397 457 26,000  Level Boston Center
12:08PM 43.2667 -74.0397 212° Southwest 397 457 26,000  Level Boston Center
12:09PM 43.1758 -74.1197 213° Southwest 397 457 26,000  Level Boston Center
12:10PM 43.0828 -74.1997 212° Southwest 397 457 26,000  Level Boston Center
12:11PM 42.9878 -74.2822 212° Southwest 397 457 26,000  Level Boston Center
12:12PM 42.9075 -74.3478 211° Southwest 397 457 26,000  Level Boston Center
12:14PM 42.7911 -74.4489 213° Southwest 397 457 26,000  Level Boston Center
12:15PM 42.6958 -74.5278 211° Southwest 397 457 26,000  Level Boston Center
12:16PM 42.6006 -74.6092 212° Southwest 402 463 26,000  Level Boston Center
12:17PM 42.5053 -74.6903 212° Southwest 402 463 26,000 -240 Level Boston Center
12:18PM 42.4097 -74.7714 212° Southwest 407 468 25,600 -960 Descending Boston Center
12:19PM 42.3122 -74.8519 211° Southwest 413 475 24,200 -1,500 Descending Boston Center
12:20PM 42.2189 -74.9267 211° Southwest 413 475 22,700 -1,440 Descending Boston Center
12:22PM 42.0411 -75.0742 212° Southwest 388 447 19,900 -1,260 Descending New York Center
12:23PM 41.9658 -75.1361 211° Southwest 372 428 19,000 -480 Descending New York Center
12:24PM 41.8800 -75.2058 211° Southwest 367 422 19,000 -360 Level New York Center
12:25PM 41.7878 -75.2775 210° Southwest 367 422 18,300 -1,020 Descending New York Center
12:26PM 41.7106 -75.3417 212° Southwest 349 402 17,000 -1,380 Descending New York Center
12:27PM 41.6308 -75.4056 211° Southwest 344 396 15,600 -1,440 Descending New York Center
12:28PM 41.5642 -75.4592 211° Southwest 328 377 14,100 -1,560 Descending New York Center
12:29PM 41.4847 -75.5231 211° Southwest 316 364 12,600 -1,020 Descending New York Center
12:30PM 41.4136 -75.5814 212° Southwest 306 352 12,100 -300 Descending New York Center
12:31PM 41.3406 -75.6369 210° Southwest 311 358 12,100 -180 Level New York Center
12:32PM 41.2844 -75.6800 210° Southwest 311 358 11,800 -960 Descending New York Center
12:33PM 41.1967 -75.6900 185° South 288 331 10,200 -900 Descending New York Center
12:34PM 41.1156 -75.6897 180° South 288 331 10,100 -60 Descending New York Center
12:35PM 41.0261 -75.6861 178° South 299 344 10,100 -60 Level New York Center
12:36PM 40.9533 -75.6808 177° South 293 337 10,000  Descending New York Center
12:37PM 40.8694 -75.6417 161° South 293 337 10,100  Climbing New York Center
12:38PM 40.7919 -75.6033 159° South 299 344 10,100  Level New York Center
12:39PM 40.7164 -75.5625 158° South 299 344 10,100  Level New York Center
12:40PM 40.6367 -75.5239 160° South 300 345 10,100  Level New York Center
12:41PM 40.5653 -75.4889 160° South 300 345 10,100  Level New York Center
12:42PM 40.4875 -75.4508 160° South 305 351 10,100 -360 Level New York Center
12:43PM 40.4011 -75.4233 166° South 299 344 9,400 -1,140 Descending New York Center
12:44PM 40.3283 -75.4211 179° South 288 331 7,900 -1,680 Descending New York Center
12:45PM 40.2431 -75.4153 177° South 288 331 6,100 -1,020 Descending New York Center
12:46PM 40.1722 -75.4106 177° South 299 344 6,000 -60 Descending New York Center
12:47PM 40.0997 -75.4003 174° South 257 296 6,000  Level New York Center
12:48PM 40.1000 -75.3167 90° East 249 287 6,100  Climbing Philadelphia TRACON
12:49PM 40.1167 -75.2333 75° East 219 252 6,100 -60 Level Philadelphia TRACON
12:50PM 40.0667 -75.2000 153° Southeast 212 244 6,000 -60 Descending Philadelphia TRACON
12:51PM 40.0167 -75.1833 166° South 216 249 6,000  Level Philadelphia TRACON
12:52PM 39.9833 -75.1333 131° Southeast 222 255 6,100  Climbing Philadelphia TRACON
12:53PM 40.0000 -75.0500 75° East 222 255 6,100  Level Philadelphia TRACON
12:54PM 40.0167 -74.9833 72° East 222 255 6,100  Level Philadelphia TRACON
12:55PM 40.0333 -74.9000 75° East 211 243 6,100 -540 Level Philadelphia TRACON
12:56PM 40.0167 -74.8500 114° Southeast 198 228 5,000 -1,080 Descending Philadelphia TRACON
12:57PM 39.9667 -74.8667 194° South 178 205 4,000 -900 Descending Philadelphia TRACON
12:58PM 39.9333 -74.9167 229° Southwest 165 190 3,300 -480 Descending Philadelphia TRACON
12:59PM 39.9333 -74.9667 270° West 163 188 3,100 -120 Descending Philadelphia TRACON
01:00PM 39.9167 -75.0167 247° West 157 181 3,100 -420 Level Philadelphia TRACON
01:01PM 39.9000 -75.0667 247° West 157 181 2,300 -840 Descending Philadelphia TRACON